createdAt,value
2023-01-18T00:00:34.452Z,98577.84
2023-01-18T00:03:02.223Z,98575.06
2023-01-18T00:05:29.992Z,98575.78
2023-01-18T00:07:58.415Z,98580.56
2023-01-18T00:10:26.107Z,98570.69
2023-01-18T00:12:54.273Z,98577.81
2023-01-18T00:15:23.448Z,98562.03
2023-01-18T00:17:52.568Z,98569.13
2023-01-18T00:20:23.917Z,98566.53
2023-01-18T00:22:53.162Z,98544.50
2023-01-18T00:25:22.725Z,98542.84
2023-01-18T00:27:52.734Z,98551.06
2023-01-18T00:30:24.107Z,98554.06
2023-01-18T00:32:55.832Z,98574.41
2023-01-18T00:35:24.324Z,98569.16
2023-01-18T00:37:53.399Z,98584.31
2023-01-18T00:40:22.202Z,98556.16
2023-01-18T00:43:08.194Z,98551.34
2023-01-18T00:45:37.351Z,98555.72
2023-01-18T00:48:05.462Z,98543.09
2023-01-18T00:50:33.477Z,98549.28
2023-01-18T00:53:01.239Z,98557.34
2023-01-18T00:55:29.099Z,98555.16
2023-01-18T00:57:56.809Z,98555.63
2023-01-18T01:00:26.971Z,98550.78
2023-01-18T01:02:56.655Z,98559.97
2023-01-18T01:05:44.829Z,98570.81
2023-01-18T01:08:17.073Z,98580.94
2023-01-18T01:10:46.356Z,98582.75
2023-01-18T01:13:32.468Z,98587.56
2023-01-18T01:16:17.928Z,98609.31
2023-01-18T01:19:04.552Z,98615.41
2023-01-18T01:21:49.996Z,98623.09
2023-01-18T01:24:35.325Z,98624.22
2023-01-18T01:27:03.032Z,98648.44
2023-01-18T01:29:30.773Z,98636.44
2023-01-18T01:31:58.482Z,98653.84
2023-01-18T01:34:29.742Z,98649.56
2023-01-18T01:36:57.640Z,98651.19
2023-01-18T01:39:25.570Z,98632.44
2023-01-18T01:41:53.280Z,98633.38
2023-01-18T01:44:55.389Z,98629.28
2023-01-18T01:47:36.001Z,98627.91
2023-01-18T01:50:12.447Z,98638.47
2023-01-18T01:52:42.780Z,98627.47
2023-01-18T01:55:15.440Z,98643.81
2023-01-18T01:57:47.452Z,98632.44
2023-01-18T02:00:19.542Z,98629.00
2023-01-18T02:02:49.565Z,98638.41
2023-01-18T02:05:19.837Z,98616.34
2023-01-18T02:07:49.105Z,98608.53
2023-01-18T02:10:17.754Z,98612.34
2023-01-18T02:12:49.811Z,98584.25
2023-01-18T02:15:20.013Z,98596.31
2023-01-18T02:18:00.851Z,98600.69
2023-01-18T02:21:07.144Z,98608.28
2023-01-18T02:24:02.824Z,98615.78
2023-01-18T02:26:52.656Z,98609.13
2023-01-18T02:29:30.371Z,98617.88
2023-01-18T02:32:08.697Z,98618.13
2023-01-18T02:34:41.925Z,98622.25
2023-01-18T02:37:21.805Z,98652.91
2023-01-18T02:40:03.035Z,98601.28
2023-01-18T02:42:49.602Z,98617.19
2023-01-18T02:45:41.836Z,98625.47
2023-01-18T02:48:10.521Z,98666.59
2023-01-18T02:50:38.529Z,98665.50
2023-01-18T02:53:06.233Z,98677.75
2023-01-18T02:55:42.847Z,98709.75
2023-01-18T02:58:19.269Z,98728.53
2023-01-18T03:00:54.238Z,98776.44
2023-01-18T03:03:23.701Z,98766.13
2023-01-18T03:05:57.046Z,98761.25
2023-01-18T03:08:28.375Z,98774.00
2023-01-18T03:11:01.956Z,98782.94
2023-01-18T03:13:40.740Z,98786.38
2023-01-18T03:16:15.653Z,98807.81
2023-01-18T03:19:01.159Z,98809.06
2023-01-18T03:21:44.334Z,98776.50
2023-01-18T03:24:13.159Z,98808.50
2023-01-18T03:26:47.077Z,98813.16
2023-01-18T03:29:34.965Z,98832.47
2023-01-18T03:32:29.252Z,98822.81
2023-01-18T03:35:03.261Z,98835.91
2023-01-18T03:37:33.548Z,98851.75
2023-01-18T03:40:04.608Z,98858.00
2023-01-18T03:42:38.018Z,98848.63
2023-01-18T03:45:10.161Z,98823.03
2023-01-18T03:47:40.016Z,98781.91
2023-01-18T03:50:08.576Z,98760.25
2023-01-18T03:52:42.714Z,98728.19
2023-01-18T03:55:16.775Z,98705.09
2023-01-18T03:57:50.145Z,98740.78
2023-01-18T04:00:19.321Z,98725.06
2023-01-18T04:02:50.059Z,98754.28
2023-01-18T04:05:18.803Z,98758.38
2023-01-18T04:07:46.560Z,98770.91
2023-01-18T04:10:14.704Z,98780.50
2023-01-18T04:12:42.473Z,98778.41
2023-01-18T04:15:11.311Z,98774.97
2023-01-18T04:17:39.652Z,98780.38
2023-01-18T04:20:10.634Z,98791.84
2023-01-18T04:22:38.583Z,98816.34
2023-01-18T04:25:07.085Z,98804.38
2023-01-18T04:27:34.785Z,98808.16
2023-01-18T04:30:02.617Z,98783.00
2023-01-18T04:32:30.538Z,98793.84
2023-01-18T04:34:58.277Z,98799.41
2023-01-18T04:37:30.543Z,98788.66
2023-01-18T04:39:58.393Z,98765.84
2023-01-18T04:42:26.142Z,98731.47
2023-01-18T04:44:53.924Z,98701.84
2023-01-18T04:47:21.654Z,98696.56
2023-01-18T04:49:49.382Z,98719.59
2023-01-18T04:52:19.017Z,98749.50
2023-01-18T04:54:48.285Z,98734.06
2023-01-18T04:57:16.017Z,98694.44
2023-01-18T04:59:46.041Z,98684.56
2023-01-18T05:02:15.247Z,98671.56
2023-01-18T05:04:43.547Z,98662.66
2023-01-18T05:07:11.735Z,98653.81
2023-01-18T05:09:39.548Z,98648.41
2023-01-18T05:12:08.883Z,98645.75
2023-01-18T05:14:36.643Z,98648.13
2023-01-18T05:17:04.353Z,98670.13
2023-01-18T05:19:32.112Z,98689.91
2023-01-18T05:21:59.846Z,98706.88
2023-01-18T05:24:29.791Z,98708.38
2023-01-18T05:26:58.030Z,98718.47
2023-01-18T05:29:27.358Z,98721.19
2023-01-18T05:31:55.112Z,98734.28
2023-01-18T05:34:22.844Z,98733.72
2023-01-18T05:36:51.097Z,98711.94
2023-01-18T05:39:18.833Z,98732.19
2023-01-18T05:41:46.550Z,98751.16
2023-01-18T05:44:14.544Z,98756.75
2023-01-18T05:46:43.771Z,98740.44
2023-01-18T05:49:11.479Z,98742.66
2023-01-18T05:51:40.312Z,98735.78
2023-01-18T05:54:08.072Z,98749.88
2023-01-18T05:56:35.818Z,98745.06
2023-01-18T05:59:03.543Z,98790.06
2023-01-18T06:01:31.323Z,98794.78
2023-01-18T06:04:00.610Z,98815.63
2023-01-18T06:06:28.370Z,98818.19
2023-01-18T06:08:56.096Z,98831.56
2023-01-18T06:11:23.901Z,98800.25
2023-01-18T06:13:52.323Z,98767.03
2023-01-18T06:16:20.230Z,98801.44
2023-01-18T06:18:48.029Z,98816.69
2023-01-18T06:21:17.977Z,98797.41
2023-01-18T06:23:45.976Z,98803.16
2023-01-18T06:26:13.743Z,98795.44
2023-01-18T06:28:41.486Z,98779.94
2023-01-18T06:31:10.556Z,98772.19
2023-01-18T06:33:38.344Z,98777.00
2023-01-18T06:36:06.902Z,98799.06
2023-01-18T06:38:36.045Z,98812.81
2023-01-18T06:41:03.793Z,98797.38
2023-01-18T06:43:31.548Z,98816.41
2023-01-18T06:45:59.509Z,98808.13
2023-01-18T06:48:28.576Z,98835.44
2023-01-18T06:50:57.744Z,98853.63
2023-01-18T06:53:26.297Z,98898.28
2023-01-18T06:55:57.729Z,98904.13
2023-01-18T06:58:26.859Z,98877.50
2023-01-18T07:00:56.259Z,98851.28
2023-01-18T07:03:24.438Z,98862.53
2023-01-18T07:05:53.959Z,98871.41
2023-01-18T07:08:22.067Z,98888.66
2023-01-18T07:10:50.150Z,98882.88
2023-01-18T07:13:19.623Z,98875.16
2023-01-18T07:15:47.589Z,98896.28
2023-01-18T07:18:16.899Z,98903.34
2023-01-18T07:20:44.636Z,98903.19
2023-01-18T07:23:12.380Z,98901.56
2023-01-18T07:25:40.075Z,98899.53
2023-01-18T07:28:07.768Z,98925.78
2023-01-18T07:30:36.843Z,98930.75
2023-01-18T07:33:04.852Z,98927.22
2023-01-18T07:35:32.571Z,98944.84
2023-01-18T07:38:00.315Z,98948.63
2023-01-18T07:40:28.208Z,98957.38
2023-01-18T07:42:58.653Z,98962.25
2023-01-18T07:45:26.605Z,98955.91
2023-01-18T07:47:56.343Z,98968.22
2023-01-18T07:50:24.065Z,98959.84
2023-01-18T07:52:51.806Z,98959.38
2023-01-18T07:55:21.148Z,98974.63
2023-01-18T07:57:48.874Z,98967.16
2023-01-18T08:00:17.287Z,98967.00
2023-01-18T08:02:45.117Z,98991.56
2023-01-18T08:05:14.343Z,98998.38
2023-01-18T08:07:42.072Z,99002.69
2023-01-18T08:10:10.649Z,99018.31
2023-01-18T08:12:38.377Z,99031.84
2023-01-18T08:15:07.357Z,99048.66
2023-01-18T08:17:36.213Z,99050.00
2023-01-18T08:20:05.555Z,99025.25
2023-01-18T08:22:34.671Z,99024.69
2023-01-18T08:25:02.598Z,99009.69
2023-01-18T08:27:30.484Z,98999.88
2023-01-18T08:29:58.541Z,99000.47
2023-01-18T08:32:26.373Z,99011.09
2023-01-18T08:34:54.101Z,98996.69
2023-01-18T08:37:23.646Z,98981.75
2023-01-18T08:39:52.814Z,98998.09
2023-01-18T08:42:20.533Z,98997.38
2023-01-18T08:44:48.536Z,99006.31
2023-01-18T08:47:18.088Z,99014.31
2023-01-18T08:49:46.644Z,99029.84
2023-01-18T08:52:15.307Z,99062.66
2023-01-18T08:54:43.127Z,99100.38
2023-01-18T08:57:12.339Z,99111.91
2023-01-18T08:59:40.075Z,99119.75
2023-01-18T09:02:09.900Z,99143.69
2023-01-18T09:04:37.722Z,99150.03
2023-01-18T09:07:05.442Z,99159.50
2023-01-18T09:09:33.177Z,99157.34
2023-01-18T09:12:00.943Z,99166.13
2023-01-18T09:14:30.023Z,99165.31
2023-01-18T09:16:57.744Z,99182.88
2023-01-18T09:19:25.760Z,99177.78
2023-01-18T09:21:53.523Z,99154.88
2023-01-18T09:24:21.274Z,99181.03
2023-01-18T09:26:51.943Z,99153.63
2023-01-18T09:29:19.691Z,99156.16
2023-01-18T09:31:49.346Z,99167.78
2023-01-18T09:34:20.010Z,99164.63
2023-01-18T09:36:50.725Z,99159.59
2023-01-18T09:39:18.537Z,99174.41
2023-01-18T09:41:52.486Z,99191.28
2023-01-18T09:44:26.084Z,99185.38
2023-01-18T09:46:59.100Z,99191.81
2023-01-18T09:49:36.580Z,99195.66
2023-01-18T09:52:16.035Z,99181.09
2023-01-18T09:54:55.258Z,99190.06
2023-01-18T09:57:39.965Z,99215.53
2023-01-18T10:00:19.754Z,99243.28
2023-01-18T10:02:53.660Z,99262.44
2023-01-18T10:05:24.819Z,99272.88
2023-01-18T10:08:03.388Z,99285.69
2023-01-18T10:10:37.314Z,99301.03
2023-01-18T10:13:24.900Z,99303.88
2023-01-18T10:15:52.815Z,99302.53
2023-01-18T10:18:21.956Z,99298.44
2023-01-18T10:20:55.707Z,99314.69
2023-01-18T10:23:26.621Z,99300.38
2023-01-18T10:25:56.433Z,99302.84
2023-01-18T10:28:34.594Z,99292.19
2023-01-18T10:31:24.430Z,99290.03
2023-01-18T10:33:57.416Z,99301.16
2023-01-18T10:36:32.427Z,99286.53
2023-01-18T10:39:04.293Z,99279.47
2023-01-18T10:41:38.534Z,99260.50
2023-01-18T10:44:06.507Z,99304.34
2023-01-18T10:46:34.280Z,99311.50
2023-01-18T10:49:04.392Z,99308.78
2023-01-18T10:51:35.308Z,99302.56
2023-01-18T10:54:23.316Z,99300.00
2023-01-18T10:57:03.224Z,99326.38
2023-01-18T10:59:37.497Z,99326.56
2023-01-18T11:02:06.043Z,99346.91
2023-01-18T11:04:35.429Z,99364.16
2023-01-18T11:07:05.077Z,99343.13
2023-01-18T11:09:42.631Z,99344.06
2023-01-18T11:12:37.419Z,99379.31
2023-01-18T11:15:30.522Z,99370.97
2023-01-18T11:18:09.628Z,99377.31
2023-01-18T11:20:46.256Z,99385.78
2023-01-18T11:23:25.340Z,99376.06
2023-01-18T11:25:57.127Z,99355.38
2023-01-18T11:28:28.753Z,99373.84
2023-01-18T11:31:01.877Z,99370.63
2023-01-18T11:33:30.981Z,99356.28
2023-01-18T11:36:02.197Z,99371.91
2023-01-18T11:38:32.718Z,99377.88
2023-01-18T11:41:13.591Z,99396.63
2023-01-18T11:43:48.471Z,99405.34
2023-01-18T11:46:44.708Z,99396.47
2023-01-18T11:49:38.747Z,99413.97
2023-01-18T11:52:18.608Z,99408.72
2023-01-18T11:54:53.326Z,99426.78
2023-01-18T11:57:21.331Z,99431.38
2023-01-18T11:59:49.415Z,99427.53
2023-01-18T12:02:43.917Z,99430.13
2023-01-18T12:05:35.448Z,99422.47
2023-01-18T12:08:22.450Z,99427.19
2023-01-18T12:11:00.953Z,99437.66
2023-01-18T12:13:36.521Z,99438.91
2023-01-18T12:16:13.505Z,99445.34
2023-01-18T12:19:06.596Z,99436.66
2023-01-18T12:21:46.257Z,99431.25
2023-01-18T12:24:34.679Z,99416.63
2023-01-18T12:27:09.422Z,99423.97
2023-01-18T12:30:05.067Z,99433.75
2023-01-18T12:32:51.811Z,99429.47
2023-01-18T12:35:49.525Z,99434.56
2023-01-18T12:38:23.077Z,99446.09
2023-01-18T12:41:30.929Z,99443.09
2023-01-18T12:44:12.579Z,99438.47
2023-01-18T12:46:47.884Z,99414.63
2023-01-18T12:49:19.111Z,99417.16
2023-01-18T12:51:49.993Z,99414.53
2023-01-18T12:54:26.668Z,99424.31
2023-01-18T12:56:58.300Z,99418.16
2023-01-18T12:59:30.630Z,99423.78
2023-01-18T13:02:03.223Z,99412.44
2023-01-18T13:04:36.360Z,99425.41
2023-01-18T13:07:08.120Z,99428.75
2023-01-18T13:09:41.183Z,99435.00
2023-01-18T13:12:11.487Z,99450.97
2023-01-18T13:14:47.058Z,99466.22
2023-01-18T13:17:20.730Z,99460.00
2023-01-18T13:19:54.960Z,99468.69
2023-01-18T13:22:28.651Z,99461.38
2023-01-18T13:25:23.048Z,99451.06
2023-01-18T13:28:02.823Z,99455.78
2023-01-18T13:30:33.359Z,99447.41
2023-01-18T13:33:01.667Z,99453.50
2023-01-18T13:35:33.292Z,99452.34
2023-01-18T13:38:03.149Z,99459.03
2023-01-18T13:40:38.699Z,99466.66
2023-01-18T13:43:31.749Z,99468.69
2023-01-18T13:46:05.595Z,99476.00
2023-01-18T13:48:46.244Z,99470.31
2023-01-18T13:51:51.988Z,99475.22
2023-01-18T13:55:03.820Z,99478.03
2023-01-18T13:57:33.991Z,99477.88
2023-01-18T14:00:04.847Z,99468.53
2023-01-18T14:02:42.249Z,99470.66
2023-01-18T14:05:25.164Z,99472.50
2023-01-18T14:07:57.113Z,99487.16
2023-01-18T14:10:30.457Z,99475.22
2023-01-18T14:13:01.035Z,99492.31
2023-01-18T14:15:49.220Z,99495.28
2023-01-18T14:18:23.120Z,99505.41
2023-01-18T14:21:03.490Z,99497.13
2023-01-18T14:23:47.520Z,99483.38
2023-01-18T14:26:18.356Z,99492.38
2023-01-18T14:28:49.202Z,99491.56
2023-01-18T14:31:22.512Z,99490.69
2023-01-18T14:33:51.069Z,99498.53
2023-01-18T14:36:22.092Z,99504.53
2023-01-18T14:39:09.698Z,99502.19
2023-01-18T14:41:38.309Z,99500.13
2023-01-18T14:44:14.047Z,99507.50
2023-01-18T14:46:44.295Z,99506.59
2023-01-18T14:49:17.537Z,99519.13
2023-01-18T14:51:49.618Z,99522.72
2023-01-18T14:54:19.145Z,99516.94
2023-01-18T14:56:46.875Z,99515.25
2023-01-18T14:59:21.547Z,99503.16
2023-01-18T15:01:56.698Z,99511.31
2023-01-18T15:04:26.738Z,99514.25
2023-01-18T15:06:58.712Z,99516.53
2023-01-18T15:09:28.367Z,99533.13
2023-01-18T15:11:59.739Z,99535.75
2023-01-18T15:14:32.407Z,99535.03
2023-01-18T15:17:02.932Z,99541.75
2023-01-18T15:19:35.317Z,99527.84
2023-01-18T15:22:05.935Z,99518.91
2023-01-18T15:24:39.706Z,99513.81
2023-01-18T15:27:13.351Z,99519.16
2023-01-18T15:29:41.223Z,99504.25
2023-01-18T15:32:15.183Z,99487.00
2023-01-18T15:34:45.374Z,99489.66
2023-01-18T15:37:17.211Z,99473.69
2023-01-18T15:39:56.639Z,99445.47
2023-01-18T15:42:27.656Z,99409.22
2023-01-18T15:44:56.259Z,99398.88
2023-01-18T15:47:28.394Z,99401.09
2023-01-18T15:49:58.997Z,99412.06
2023-01-18T15:52:38.909Z,99419.09
2023-01-18T15:55:14.303Z,99453.22
2023-01-18T15:57:43.280Z,99450.31
2023-01-18T16:00:27.524Z,99443.31
2023-01-18T16:02:57.257Z,99442.38
2023-01-18T16:05:26.986Z,99416.78
2023-01-18T16:08:16.165Z,99429.81
2023-01-18T16:10:50.016Z,99411.78
2023-01-18T16:13:35.528Z,99392.03
2023-01-18T16:16:17.209Z,99387.81
2023-01-18T16:18:49.285Z,99407.88
2023-01-18T16:21:27.456Z,99419.91
2023-01-18T16:23:57.003Z,99438.41
2023-01-18T16:26:30.741Z,99427.94
2023-01-18T16:29:09.278Z,99447.78
2023-01-18T16:31:41.403Z,99446.56
2023-01-18T16:34:28.166Z,99449.78
2023-01-18T16:36:55.897Z,99465.25
2023-01-18T16:39:24.489Z,99493.44
2023-01-18T16:41:55.095Z,99499.13
2023-01-18T16:44:23.005Z,99467.56
2023-01-18T16:46:50.957Z,99462.34
2023-01-18T16:49:18.777Z,99453.47
2023-01-18T16:51:49.530Z,99417.03
2023-01-18T16:54:18.698Z,99434.22
2023-01-18T16:56:47.470Z,99423.44
2023-01-18T16:59:18.413Z,99434.00
2023-01-18T17:01:47.053Z,99427.81
2023-01-18T17:04:15.173Z,99417.66
2023-01-18T17:06:44.054Z,99402.56
2023-01-18T17:09:20.094Z,99400.72
2023-01-18T17:11:48.001Z,99360.69
2023-01-18T17:14:15.817Z,99354.28
2023-01-18T17:16:44.999Z,99348.22
2023-01-18T17:19:14.450Z,99335.63
2023-01-18T17:21:42.915Z,99339.47
2023-01-18T17:24:12.722Z,99328.59
2023-01-18T17:26:43.652Z,99340.09
2023-01-18T17:29:17.668Z,99321.31
2023-01-18T17:31:52.281Z,99311.09
2023-01-18T17:34:27.258Z,99298.44
2023-01-18T17:36:57.113Z,99306.28
2023-01-18T17:39:32.003Z,99300.34
2023-01-18T17:42:16.352Z,99313.31
2023-01-18T17:44:44.327Z,99319.00
2023-01-18T17:47:12.100Z,99332.78
2023-01-18T17:49:41.227Z,99329.97
2023-01-18T17:52:09.158Z,99345.44
2023-01-18T17:54:36.949Z,99372.81
2023-01-18T17:57:05.384Z,99364.41
2023-01-18T17:59:34.603Z,99363.75
2023-01-18T18:02:02.364Z,99352.69
2023-01-18T18:04:31.426Z,99340.66
2023-01-18T18:06:59.614Z,99355.56
2023-01-18T18:09:27.536Z,99350.25
2023-01-18T18:11:55.324Z,99370.31
2023-01-18T18:14:23.087Z,99370.06
2023-01-18T18:16:52.286Z,99408.78
2023-01-18T18:19:20.120Z,99406.38
2023-01-18T18:21:47.880Z,99443.31
2023-01-18T18:24:15.666Z,99450.94
2023-01-18T18:26:43.410Z,99475.84
2023-01-18T18:29:12.251Z,99463.28
2023-01-18T18:31:40.069Z,99469.31
2023-01-18T18:34:10.301Z,99472.19
2023-01-18T18:36:38.612Z,99476.88
2023-01-18T18:39:07.321Z,99460.84
2023-01-18T18:41:35.129Z,99438.63
2023-01-18T18:44:02.853Z,99438.63
2023-01-18T18:46:30.930Z,99452.44
2023-01-18T18:48:58.787Z,99456.56
2023-01-18T18:51:27.988Z,99441.72
2023-01-18T18:53:56.499Z,99470.59
2023-01-18T18:56:24.423Z,99454.34
2023-01-18T18:58:52.148Z,99447.84
2023-01-18T19:01:22.308Z,99455.47
2023-01-18T19:03:51.165Z,99472.47
2023-01-18T19:06:21.241Z,99476.81
2023-01-18T19:08:50.855Z,99470.19
2023-01-18T19:11:19.209Z,99464.81
2023-01-18T19:13:49.425Z,99450.34
2023-01-18T19:16:17.603Z,99459.28
2023-01-18T19:18:45.398Z,99452.31
2023-01-18T19:21:13.301Z,99465.44
2023-01-18T19:23:41.059Z,99465.28
2023-01-18T19:26:10.198Z,99463.00
2023-01-18T19:28:38.065Z,99477.59
2023-01-18T19:31:07.250Z,99491.75
2023-01-18T19:33:35.199Z,99504.00
2023-01-18T19:36:08.918Z,99484.47
2023-01-18T19:38:45.664Z,99505.56
2023-01-18T19:41:16.204Z,99508.78
2023-01-18T19:43:44.480Z,99509.25
2023-01-18T19:46:15.309Z,99496.81
2023-01-18T19:48:43.641Z,99513.84
2023-01-18T19:51:21.833Z,99514.03
2023-01-18T19:53:50.785Z,99522.84
2023-01-18T19:56:20.211Z,99532.88
2023-01-18T19:58:47.960Z,99529.75
2023-01-18T20:01:30.071Z,99549.56
2023-01-18T20:03:58.261Z,99549.91
2023-01-18T20:06:25.988Z,99566.22
2023-01-18T20:08:54.047Z,99553.41
2023-01-18T20:11:23.132Z,99537.53
2023-01-18T20:13:51.594Z,99550.72
2023-01-18T20:16:20.274Z,99546.38
2023-01-18T20:18:48.773Z,99537.69
2023-01-18T20:21:19.096Z,99521.91
2023-01-18T20:23:47.441Z,99528.94
2023-01-18T20:26:27.715Z,99537.38
2023-01-18T20:29:06.716Z,99541.81
2023-01-18T20:31:36.231Z,99550.84
2023-01-18T20:34:04.660Z,99544.66
2023-01-18T20:36:34.767Z,99541.81
2023-01-18T20:39:02.806Z,99528.94
2023-01-18T20:41:30.563Z,99544.66
2023-01-18T20:43:58.371Z,99543.38
2023-01-18T20:46:27.562Z,99519.28
2023-01-18T20:48:55.328Z,99536.66
2023-01-18T20:51:23.057Z,99544.72
2023-01-18T20:53:50.820Z,99534.16
2023-01-18T20:56:28.931Z,99523.38
2023-01-18T20:58:57.866Z,99537.16
2023-01-18T21:01:32.020Z,99534.84
2023-01-18T21:04:01.718Z,99529.66
2023-01-18T21:06:30.264Z,99497.41
2023-01-18T21:08:59.683Z,99525.25
2023-01-18T21:11:27.980Z,99524.38
2023-01-18T21:13:57.127Z,99538.03
2023-01-18T21:16:26.756Z,99551.28
2023-01-18T21:18:58.669Z,99536.38
2023-01-18T21:21:26.945Z,99531.53
2023-01-18T21:23:54.738Z,99523.63
2023-01-18T21:26:22.616Z,99542.78
2023-01-18T21:28:50.364Z,99533.78
2023-01-18T21:31:18.494Z,99524.69
2023-01-18T21:33:46.283Z,99494.25
2023-01-18T21:36:17.413Z,99480.53
2023-01-18T21:38:45.423Z,99456.84
2023-01-18T21:41:30.773Z,99465.22
2023-01-18T21:44:12.819Z,99486.53
2023-01-18T21:46:46.014Z,99498.59
2023-01-18T21:49:51.978Z,99505.63
2023-01-18T21:52:40.866Z,99508.22
2023-01-18T21:55:09.280Z,99506.09
2023-01-18T21:57:37.481Z,99513.47
2023-01-18T22:00:06.804Z,99518.41
2023-01-18T22:02:35.020Z,99525.78
2023-01-18T22:05:03.678Z,99532.28
2023-01-18T22:07:35.395Z,99522.16
2023-01-18T22:10:05.545Z,99524.94
2023-01-18T22:12:35.243Z,99539.75
2023-01-18T22:15:04.406Z,99548.16
2023-01-18T22:17:32.688Z,99554.69
2023-01-18T22:20:01.695Z,99554.59
2023-01-18T22:22:29.556Z,99539.53
2023-01-18T22:25:00.211Z,99544.31
2023-01-18T22:27:28.139Z,99551.94
2023-01-18T22:29:55.936Z,99554.56
2023-01-18T22:32:23.712Z,99559.91
2023-01-18T22:34:51.432Z,99557.19
2023-01-18T22:37:19.222Z,99559.06
2023-01-18T22:39:46.938Z,99559.50
2023-01-18T22:42:16.047Z,99566.56
2023-01-18T22:44:44.177Z,99567.97
2023-01-18T22:47:12.121Z,99560.09
2023-01-18T22:49:39.851Z,99581.72
2023-01-18T22:52:07.591Z,99571.47
2023-01-18T22:54:35.342Z,99578.63
2023-01-18T22:57:03.085Z,99583.00
2023-01-18T22:59:32.232Z,99593.66
2023-01-18T23:01:59.966Z,99622.72
2023-01-18T23:04:29.481Z,99620.97
2023-01-18T23:07:00.740Z,99630.75
2023-01-18T23:09:29.334Z,99623.97
2023-01-18T23:11:57.229Z,99613.91
2023-01-18T23:14:42.408Z,99632.47
2023-01-18T23:17:30.410Z,99630.22
2023-01-18T23:19:58.144Z,99636.25
2023-01-18T23:22:25.941Z,99613.53
2023-01-18T23:24:53.686Z,99622.00
2023-01-18T23:27:22.132Z,99621.09
2023-01-18T23:29:56.601Z,99611.31
2023-01-18T23:32:30.344Z,99594.91
2023-01-18T23:34:58.216Z,99594.38
2023-01-18T23:37:26.047Z,99577.22
2023-01-18T23:40:11.271Z,99579.41
2023-01-18T23:42:56.703Z,99585.53
2023-01-18T23:45:42.013Z,99578.81
2023-01-18T23:48:31.572Z,99586.25
2023-01-18T23:51:16.757Z,99577.78
2023-01-18T23:54:02.132Z,99582.59
2023-01-18T23:56:29.991Z,99600.00
2023-01-18T23:58:57.997Z,99591.59
